sensor_id;sensor_type;location;lat;lon;timestamp;P1;durP1;ratioP1;P2;durP2;ratioP2
64894;SDS011;51588;53.702;10.208;2022-12-24T00:00:07;8.80;;;3.60;;
64894;SDS011;51588;53.702;10.208;2022-12-24T00:02:33;3.60;;;3.20;;
64894;SDS011;51588;53.702;10.208;2022-12-24T00:05:00;5.77;;;3.20;;
64894;SDS011;51588;53.702;10.208;2022-12-24T00:07:26;6.60;;;3.57;;
64894;SDS011;51588;53.702;10.208;2022-12-24T00:09:53;5.30;;;3.30;;
64894;SDS011;51588;53.702;10.208;2022-12-24T00:12:21;4.17;;;3.40;;
64894;SDS011;51588;53.702;10.208;2022-12-24T00:14:47;5.10;;;3.53;;
64894;SDS011;51588;53.702;10.208;2022-12-24T00:17:14;4.90;;;3.07;;
64894;SDS011;51588;53.702;10.208;2022-12-24T00:19:41;5.80;;;3.43;;
64894;SDS011;51588;53.702;10.208;2022-12-24T00:22:08;4.87;;;3.50;;
64894;SDS011;51588;53.702;10.208;2022-12-24T00:24:34;6.90;;;3.50;;
64894;SDS011;51588;53.702;10.208;2022-12-24T00:27:01;4.73;;;3.33;;
64894;SDS011;51588;53.702;10.208;2022-12-24T00:29:31;5.67;;;3.40;;
64894;SDS011;51588;53.702;10.208;2022-12-24T00:31:57;5.17;;;3.50;;
64894;SDS011;51588;53.702;10.208;2022-12-24T00:34:24;5.43;;;3.37;;
64894;SDS011;51588;53.702;10.208;2022-12-24T00:36:50;4.60;;;3.60;;
64894;SDS011;51588;53.702;10.208;2022-12-24T00:39:17;5.03;;;3.40;;
64894;SDS011;51588;53.702;10.208;2022-12-24T00:41:43;5.30;;;3.60;;
64894;SDS011;51588;53.702;10.208;2022-12-24T00:44:10;4.73;;;3.23;;
64894;SDS011;51588;53.702;10.208;2022-12-24T00:46:38;6.70;;;3.73;;
64894;SDS011;51588;53.702;10.208;2022-12-24T00:49:05;5.63;;;3.50;;
64894;SDS011;51588;53.702;10.208;2022-12-24T00:51:32;6.30;;;3.40;;
64894;SDS011;51588;53.702;10.208;2022-12-24T00:53:59;5.13;;;3.77;;
64894;SDS011;51588;53.702;10.208;2022-12-24T00:56:25;6.53;;;3.93;;
64894;SDS011;51588;53.702;10.208;2022-12-24T00:58:52;6.07;;;3.80;;
64894;SDS011;51588;53.702;10.208;2022-12-24T01:01:18;5.87;;;3.60;;
64894;SDS011;51588;53.702;10.208;2022-12-24T01:03:46;4.57;;;3.67;;
64894;SDS011;51588;53.702;10.208;2022-12-24T01:06:14;4.70;;;3.70;;
64894;SDS011;51588;53.702;10.208;2022-12-24T01:08:39;4.30;;;3.23;;
64894;SDS011;51588;53.702;10.208;2022-12-24T01:11:06;7.47;;;3.90;;
64894;SDS011;51588;53.702;10.208;2022-12-24T01:13:33;5.30;;;3.50;;
64894;SDS011;51588;53.702;10.208;2022-12-24T01:16:00;6.43;;;3.73;;
64894;SDS011;51588;53.702;10.208;2022-12-24T01:18:26;4.57;;;3.60;;
64894;SDS011;51588;53.702;10.208;2022-12-24T01:20:58;5.37;;;3.60;;
64894;SDS011;51588;53.702;10.208;2022-12-24T01:23:25;4.60;;;3.67;;
64894;SDS011;51588;53.702;10.208;2022-12-24T01:25:52;4.90;;;3.90;;
64894;SDS011;51588;53.702;10.208;2022-12-24T01:28:18;4.70;;;3.53;;
64894;SDS011;51588;53.702;10.208;2022-12-24T01:30:45;5.00;;;3.70;;
64894;SDS011;51588;53.702;10.208;2022-12-24T01:33:11;6.63;;;4.10;;
64894;SDS011;51588;53.702;10.208;2022-12-24T01:35:38;5.07;;;4.30;;
64894;SDS011;51588;53.702;10.208;2022-12-24T01:38:06;4.90;;;3.57;;
64894;SDS011;51588;53.702;10.208;2022-12-24T01:40:32;6.67;;;4.83;;
64894;SDS011;51588;53.702;10.208;2022-12-24T01:43:16;5.93;;;3.90;;
64894;SDS011;51588;53.702;10.208;2022-12-24T01:45:48;5.27;;;4.03;;
64894;SDS011;51588;53.702;10.208;2022-12-24T01:48:16;5.73;;;3.93;;
64894;SDS011;51588;53.702;10.208;2022-12-24T01:50:44;4.90;;;3.60;;
64894;SDS011;51588;53.702;10.208;2022-12-24T01:53:13;7.80;;;4.17;;
64894;SDS011;51588;53.702;10.208;2022-12-24T01:55:39;7.63;;;4.30;;
64894;SDS011;51588;53.702;10.208;2022-12-24T01:58:06;5.53;;;4.03;;
64894;SDS011;51588;53.702;10.208;2022-12-24T02:00:33;5.80;;;4.03;;
64894;SDS011;51588;53.702;10.208;2022-12-24T02:03:00;6.43;;;3.93;;
64894;SDS011;51588;53.702;10.208;2022-12-24T02:05:27;6.83;;;4.20;;
64894;SDS011;51588;53.702;10.208;2022-12-24T02:07:54;7.40;;;4.00;;
64894;SDS011;51588;53.702;10.208;2022-12-24T02:10:23;6.10;;;4.13;;
64894;SDS011;51588;53.702;10.208;2022-12-24T02:12:49;6.17;;;4.13;;
64894;SDS011;51588;53.702;10.208;2022-12-24T02:15:17;6.20;;;4.30;;
64894;SDS011;51588;53.702;10.208;2022-12-24T02:17:46;6.33;;;4.27;;
64894;SDS011;51588;53.702;10.208;2022-12-24T02:20:28;6.77;;;4.30;;
64894;SDS011;51588;53.702;10.208;2022-12-24T02:23:02;7.40;;;4.20;;
64894;SDS011;51588;53.702;10.208;2022-12-24T02:25:38;5.80;;;3.83;;
64894;SDS011;51588;53.702;10.208;2022-12-24T02:28:11;5.67;;;4.10;;
64894;SDS011;51588;53.702;10.208;2022-12-24T02:30:43;5.53;;;4.03;;
64894;SDS011;51588;53.702;10.208;2022-12-24T02:33:13;5.70;;;4.07;;
64894;SDS011;51588;53.702;10.208;2022-12-24T02:35:43;5.47;;;3.90;;
64894;SDS011;51588;53.702;10.208;2022-12-24T02:38:12;4.20;;;3.60;;
64894;SDS011;51588;53.702;10.208;2022-12-24T02:40:40;5.33;;;4.20;;
64894;SDS011;51588;53.702;10.208;2022-12-24T02:43:09;5.57;;;4.30;;
64894;SDS011;51588;53.702;10.208;2022-12-24T02:45:36;6.20;;;3.80;;
64894;SDS011;51588;53.702;10.208;2022-12-24T02:48:05;6.43;;;4.37;;
64894;SDS011;51588;53.702;10.208;2022-12-24T02:50:32;6.43;;;4.50;;
64894;SDS011;51588;53.702;10.208;2022-12-24T02:52:58;5.10;;;3.97;;
64894;SDS011;51588;53.702;10.208;2022-12-24T02:55:26;5.87;;;4.23;;
64894;SDS011;51588;53.702;10.208;2022-12-24T02:58:02;4.60;;;3.80;;
64894;SDS011;51588;53.702;10.208;2022-12-24T03:00:31;8.47;;;4.20;;
64894;SDS011;51588;53.702;10.208;2022-12-24T03:03:04;6.00;;;4.27;;
64894;SDS011;51588;53.702;10.208;2022-12-24T03:05:39;6.43;;;4.03;;
64894;SDS011;51588;53.702;10.208;2022-12-24T03:08:09;5.03;;;3.87;;
64894;SDS011;51588;53.702;10.208;2022-12-24T03:10:40;6.30;;;4.07;;
64894;SDS011;51588;53.702;10.208;2022-12-24T03:13:08;5.97;;;4.00;;
64894;SDS011;51588;53.702;10.208;2022-12-24T03:15:35;6.67;;;4.40;;
64894;SDS011;51588;53.702;10.208;2022-12-24T03:18:02;5.30;;;3.97;;
64894;SDS011;51588;53.702;10.208;2022-12-24T03:20:32;4.80;;;3.67;;
64894;SDS011;51588;53.702;10.208;2022-12-24T03:23:01;7.20;;;4.50;;
64894;SDS011;51588;53.702;10.208;2022-12-24T03:25:27;7.30;;;4.63;;
64894;SDS011;51588;53.702;10.208;2022-12-24T03:27:54;5.50;;;3.93;;
64894;SDS011;51588;53.702;10.208;2022-12-24T03:30:21;5.30;;;3.53;;
64894;SDS011;51588;53.702;10.208;2022-12-24T03:32:48;5.13;;;4.10;;
64894;SDS011;51588;53.702;10.208;2022-12-24T03:35:14;4.70;;;3.73;;
64894;SDS011;51588;53.702;10.208;2022-12-24T03:37:40;6.33;;;4.10;;
64894;SDS011;51588;53.702;10.208;2022-12-24T03:40:09;5.73;;;4.10;;
64894;SDS011;51588;53.702;10.208;2022-12-24T03:42:35;4.80;;;3.83;;
64894;SDS011;51588;53.702;10.208;2022-12-24T03:45:02;5.00;;;3.90;;
64894;SDS011;51588;53.702;10.208;2022-12-24T03:47:29;6.43;;;4.03;;
64894;SDS011;51588;53.702;10.208;2022-12-24T03:49:55;5.90;;;3.93;;
64894;SDS011;51588;53.702;10.208;2022-12-24T03:52:22;5.60;;;4.30;;
64894;SDS011;51588;53.702;10.208;2022-12-24T03:54:48;6.10;;;4.30;;
64894;SDS011;51588;53.702;10.208;2022-12-24T03:57:16;5.53;;;3.80;;
64894;SDS011;51588;53.702;10.208;2022-12-24T03:59:42;6.33;;;4.23;;
64894;SDS011;51588;53.702;10.208;2022-12-24T04:02:09;4.90;;;4.00;;
64894;SDS011;51588;53.702;10.208;2022-12-24T04:04:35;5.30;;;3.97;;
64894;SDS011;51588;53.702;10.208;2022-12-24T04:07:02;4.67;;;3.80;;
64894;SDS011;51588;53.702;10.208;2022-12-24T04:09:28;5.97;;;4.00;;
64894;SDS011;51588;53.702;10.208;2022-12-24T04:11:54;5.93;;;3.80;;
64894;SDS011;51588;53.702;10.208;2022-12-24T04:14:22;5.20;;;3.90;;
64894;SDS011;51588;53.702;10.208;2022-12-24T04:16:49;3.70;;;3.30;;
64894;SDS011;51588;53.702;10.208;2022-12-24T04:19:15;6.03;;;3.60;;
64894;SDS011;51588;53.702;10.208;2022-12-24T04:21:41;4.30;;;3.50;;
64894;SDS011;51588;53.702;10.208;2022-12-24T04:24:08;4.40;;;3.60;;
64894;SDS011;51588;53.702;10.208;2022-12-24T04:26:34;4.43;;;3.70;;
64894;SDS011;51588;53.702;10.208;2022-12-24T04:29:00;5.23;;;3.87;;
64894;SDS011;51588;53.702;10.208;2022-12-24T04:31:28;4.53;;;3.60;;
64894;SDS011;51588;53.702;10.208;2022-12-24T04:33:54;4.90;;;3.37;;
64894;SDS011;51588;53.702;10.208;2022-12-24T04:36:21;4.40;;;3.47;;
64894;SDS011;51588;53.702;10.208;2022-12-24T04:38:47;5.20;;;2.93;;
64894;SDS011;51588;53.702;10.208;2022-12-24T04:41:14;5.00;;;3.80;;
64894;SDS011;51588;53.702;10.208;2022-12-24T04:43:41;3.77;;;3.33;;
64894;SDS011;51588;53.702;10.208;2022-12-24T04:46:08;4.73;;;3.70;;
64894;SDS011;51588;53.702;10.208;2022-12-24T04:48:37;4.97;;;3.43;;
64894;SDS011;51588;53.702;10.208;2022-12-24T04:51:04;5.23;;;3.80;;
64894;SDS011;51588;53.702;10.208;2022-12-24T04:53:30;4.80;;;3.60;;
64894;SDS011;51588;53.702;10.208;2022-12-24T04:55:57;4.50;;;3.17;;
64894;SDS011;51588;53.702;10.208;2022-12-24T04:58:24;4.10;;;3.43;;
64894;SDS011;51588;53.702;10.208;2022-12-24T05:00:50;3.47;;;3.17;;
64894;SDS011;51588;53.702;10.208;2022-12-24T05:03:17;3.13;;;2.83;;
64894;SDS011;51588;53.702;10.208;2022-12-24T05:05:45;4.07;;;3.23;;
64894;SDS011;51588;53.702;10.208;2022-12-24T05:08:11;3.50;;;3.17;;
64894;SDS011;51588;53.702;10.208;2022-12-24T05:10:38;5.07;;;3.20;;
64894;SDS011;51588;53.702;10.208;2022-12-24T05:13:04;4.40;;;3.23;;
64894;SDS011;51588;53.702;10.208;2022-12-24T05:15:31;4.20;;;3.40;;
64894;SDS011;51588;53.702;10.208;2022-12-24T05:17:57;4.00;;;2.70;;
64894;SDS011;51588;53.702;10.208;2022-12-24T05:20:23;3.50;;;2.97;;
64894;SDS011;51588;53.702;10.208;2022-12-24T05:22:51;3.43;;;3.13;;
64894;SDS011;51588;53.702;10.208;2022-12-24T05:25:36;3.23;;;2.60;;
64894;SDS011;51588;53.702;10.208;2022-12-24T05:28:21;2.80;;;2.47;;
64894;SDS011;51588;53.702;10.208;2022-12-24T05:30:47;3.80;;;2.73;;
64894;SDS011;51588;53.702;10.208;2022-12-24T05:33:14;3.60;;;2.73;;
64894;SDS011;51588;53.702;10.208;2022-12-24T05:35:40;4.20;;;2.77;;
64894;SDS011;51588;53.702;10.208;2022-12-24T05:38:08;3.40;;;2.93;;
64894;SDS011;51588;53.702;10.208;2022-12-24T05:40:34;3.50;;;2.80;;
64894;SDS011;51588;53.702;10.208;2022-12-24T05:43:01;3.20;;;2.90;;
64894;SDS011;51588;53.702;10.208;2022-12-24T05:45:27;4.90;;;3.10;;
64894;SDS011;51588;53.702;10.208;2022-12-24T05:47:53;3.73;;;3.00;;
64894;SDS011;51588;53.702;10.208;2022-12-24T05:50:20;5.37;;;3.33;;
64894;SDS011;51588;53.702;10.208;2022-12-24T05:52:46;3.50;;;2.83;;
64894;SDS011;51588;53.702;10.208;2022-12-24T05:55:14;3.03;;;2.60;;
64894;SDS011;51588;53.702;10.208;2022-12-24T05:57:40;3.07;;;2.50;;
64894;SDS011;51588;53.702;10.208;2022-12-24T06:00:07;3.17;;;2.70;;
64894;SDS011;51588;53.702;10.208;2022-12-24T06:02:34;3.33;;;2.83;;
64894;SDS011;51588;53.702;10.208;2022-12-24T06:05:00;3.17;;;2.50;;
64894;SDS011;51588;53.702;10.208;2022-12-24T06:07:26;3.10;;;2.60;;
64894;SDS011;51588;53.702;10.208;2022-12-24T06:09:53;3.63;;;2.70;;
64894;SDS011;51588;53.702;10.208;2022-12-24T06:12:20;3.23;;;2.57;;
64894;SDS011;51588;53.702;10.208;2022-12-24T06:14:47;2.80;;;2.50;;
64894;SDS011;51588;53.702;10.208;2022-12-24T06:17:13;3.30;;;2.83;;
64894;SDS011;51588;53.702;10.208;2022-12-24T06:19:40;3.67;;;2.53;;
64894;SDS011;51588;53.702;10.208;2022-12-24T06:22:06;2.47;;;2.20;;
64894;SDS011;51588;53.702;10.208;2022-12-24T06:24:32;3.30;;;2.70;;
64894;SDS011;51588;53.702;10.208;2022-12-24T06:26:59;3.57;;;2.80;;
64894;SDS011;51588;53.702;10.208;2022-12-24T06:29:28;2.80;;;2.40;;
64894;SDS011;51588;53.702;10.208;2022-12-24T06:31:54;5.60;;;2.60;;
64894;SDS011;51588;53.702;10.208;2022-12-24T06:34:20;2.43;;;2.00;;
64894;SDS011;51588;53.702;10.208;2022-12-24T06:36:47;3.20;;;2.57;;
64894;SDS011;51588;53.702;10.208;2022-12-24T06:39:13;2.97;;;2.67;;
64894;SDS011;51588;53.702;10.208;2022-12-24T06:41:39;2.90;;;2.60;;
64894;SDS011;51588;53.702;10.208;2022-12-24T06:44:07;3.03;;;2.50;;
64894;SDS011;51588;53.702;10.208;2022-12-24T06:46:35;2.83;;;2.50;;
64894;SDS011;51588;53.702;10.208;2022-12-24T06:49:01;2.80;;;2.50;;
64894;SDS011;51588;53.702;10.208;2022-12-24T06:51:28;3.20;;;2.47;;
64894;SDS011;51588;53.702;10.208;2022-12-24T06:53:54;2.87;;;2.50;;
64894;SDS011;51588;53.702;10.208;2022-12-24T06:56:20;3.00;;;2.60;;
64894;SDS011;51588;53.702;10.208;2022-12-24T06:58:47;2.80;;;2.30;;
64894;SDS011;51588;53.702;10.208;2022-12-24T07:01:14;3.10;;;2.77;;
64894;SDS011;51588;53.702;10.208;2022-12-24T07:03:43;2.97;;;2.30;;
64894;SDS011;51588;53.702;10.208;2022-12-24T07:06:10;3.00;;;2.20;;
64894;SDS011;51588;53.702;10.208;2022-12-24T07:08:40;2.33;;;2.13;;
64894;SDS011;51588;53.702;10.208;2022-12-24T07:11:06;2.20;;;2.00;;
64894;SDS011;51588;53.702;10.208;2022-12-24T07:13:32;2.50;;;2.23;;
64894;SDS011;51588;53.702;10.208;2022-12-24T07:15:59;2.40;;;2.20;;
64894;SDS011;51588;53.702;10.208;2022-12-24T07:18:25;2.03;;;1.90;;
64894;SDS011;51588;53.702;10.208;2022-12-24T07:20:54;3.60;;;2.47;;
64894;SDS011;51588;53.702;10.208;2022-12-24T07:23:20;2.47;;;2.27;;
64894;SDS011;51588;53.702;10.208;2022-12-24T07:25:46;1.97;;;1.73;;
64894;SDS011;51588;53.702;10.208;2022-12-24T07:28:13;2.50;;;2.07;;
64894;SDS011;51588;53.702;10.208;2022-12-24T07:30:39;2.50;;;2.30;;
64894;SDS011;51588;53.702;10.208;2022-12-24T07:33:06;2.23;;;2.00;;
64894;SDS011;51588;53.702;10.208;2022-12-24T07:35:34;2.60;;;2.03;;
64894;SDS011;51588;53.702;10.208;2022-12-24T07:38:02;2.20;;;2.00;;
64894;SDS011;51588;53.702;10.208;2022-12-24T07:40:28;7.70;;;2.10;;
64894;SDS011;51588;53.702;10.208;2022-12-24T07:42:55;6.70;;;2.50;;
64894;SDS011;51588;53.702;10.208;2022-12-24T07:45:21;2.90;;;2.03;;
64894;SDS011;51588;53.702;10.208;2022-12-24T07:47:48;4.17;;;2.30;;
64894;SDS011;51588;53.702;10.208;2022-12-24T07:50:14;3.60;;;2.13;;
64894;SDS011;51588;53.702;10.208;2022-12-24T07:52:40;4.73;;;3.03;;
64894;SDS011;51588;53.702;10.208;2022-12-24T07:55:08;4.50;;;2.20;;
64894;SDS011;51588;53.702;10.208;2022-12-24T07:57:35;2.57;;;1.90;;
64894;SDS011;51588;53.702;10.208;2022-12-24T08:00:01;2.10;;;1.90;;
64894;SDS011;51588;53.702;10.208;2022-12-24T08:02:28;3.20;;;1.80;;
64894;SDS011;51588;53.702;10.208;2022-12-24T08:04:55;3.00;;;2.30;;
64894;SDS011;51588;53.702;10.208;2022-12-24T08:07:21;2.00;;;1.80;;
64894;SDS011;51588;53.702;10.208;2022-12-24T08:09:48;4.83;;;2.60;;
64894;SDS011;51588;53.702;10.208;2022-12-24T08:12:15;3.50;;;1.97;;
64894;SDS011;51588;53.702;10.208;2022-12-24T08:14:42;3.03;;;2.67;;
64894;SDS011;51588;53.702;10.208;2022-12-24T08:17:08;3.10;;;2.17;;
64894;SDS011;51588;53.702;10.208;2022-12-24T08:19:34;2.60;;;2.40;;
64894;SDS011;51588;53.702;10.208;2022-12-24T08:22:01;3.10;;;2.30;;
64894;SDS011;51588;53.702;10.208;2022-12-24T08:24:27;4.07;;;2.43;;
64894;SDS011;51588;53.702;10.208;2022-12-24T08:26:53;3.90;;;2.47;;
64894;SDS011;51588;53.702;10.208;2022-12-24T08:29:21;2.73;;;2.10;;
64894;SDS011;51588;53.702;10.208;2022-12-24T08:31:48;3.23;;;2.63;;
64894;SDS011;51588;53.702;10.208;2022-12-24T08:34:14;4.37;;;2.67;;
64894;SDS011;51588;53.702;10.208;2022-12-24T08:36:40;4.97;;;2.70;;
64894;SDS011;51588;53.702;10.208;2022-12-24T08:39:07;4.07;;;2.90;;
64894;SDS011;51588;53.702;10.208;2022-12-24T08:41:33;3.43;;;2.60;;
64894;SDS011;51588;53.702;10.208;2022-12-24T08:43:59;3.90;;;2.90;;
64894;SDS011;51588;53.702;10.208;2022-12-24T08:46:27;4.60;;;3.33;;
64894;SDS011;51588;53.702;10.208;2022-12-24T08:48:54;8.73;;;3.17;;
64894;SDS011;51588;53.702;10.208;2022-12-24T08:51:20;6.83;;;3.80;;
64894;SDS011;51588;53.702;10.208;2022-12-24T08:53:46;7.13;;;3.37;;
64894;SDS011;51588;53.702;10.208;2022-12-24T08:56:13;4.10;;;3.33;;
64894;SDS011;51588;53.702;10.208;2022-12-24T08:58:39;8.53;;;3.80;;
64894;SDS011;51588;53.702;10.208;2022-12-24T09:01:09;7.10;;;3.80;;
64894;SDS011;51588;53.702;10.208;2022-12-24T09:03:37;8.27;;;4.13;;
64894;SDS011;51588;53.702;10.208;2022-12-24T09:06:04;6.70;;;3.70;;
64894;SDS011;51588;53.702;10.208;2022-12-24T09:08:31;5.73;;;4.00;;
64894;SDS011;51588;53.702;10.208;2022-12-24T09:11:01;12.23;;;3.73;;
64894;SDS011;51588;53.702;10.208;2022-12-24T09:13:28;6.83;;;3.80;;
64894;SDS011;51588;53.702;10.208;2022-12-24T09:15:55;5.33;;;3.93;;
64894;SDS011;51588;53.702;10.208;2022-12-24T09:18:21;5.33;;;4.00;;
64894;SDS011;51588;53.702;10.208;2022-12-24T09:20:49;10.40;;;3.63;;
64894;SDS011;51588;53.702;10.208;2022-12-24T09:23:15;4.80;;;3.40;;
64894;SDS011;51588;53.702;10.208;2022-12-24T09:25:41;5.03;;;4.00;;
64894;SDS011;51588;53.702;10.208;2022-12-24T09:28:08;7.40;;;3.40;;
64894;SDS011;51588;53.702;10.208;2022-12-24T09:30:35;7.40;;;3.97;;
64894;SDS011;51588;53.702;10.208;2022-12-24T09:33:01;6.53;;;4.27;;
64894;SDS011;51588;53.702;10.208;2022-12-24T09:35:27;5.50;;;3.93;;
64894;SDS011;51588;53.702;10.208;2022-12-24T09:37:55;7.00;;;4.17;;
64894;SDS011;51588;53.702;10.208;2022-12-24T09:40:28;8.90;;;4.40;;
64894;SDS011;51588;53.702;10.208;2022-12-24T09:42:58;25.77;;;8.57;;
64894;SDS011;51588;53.702;10.208;2022-12-24T09:45:27;22.57;;;8.27;;
64894;SDS011;51588;53.702;10.208;2022-12-24T09:47:54;22.37;;;9.33;;
64894;SDS011;51588;53.702;10.208;2022-12-24T09:50:27;17.77;;;7.40;;
64894;SDS011;51588;53.702;10.208;2022-12-24T09:52:57;11.17;;;6.70;;
64894;SDS011;51588;53.702;10.208;2022-12-24T09:55:27;13.20;;;6.87;;
64894;SDS011;51588;53.702;10.208;2022-12-24T09:57:55;11.07;;;6.80;;
64894;SDS011;51588;53.702;10.208;2022-12-24T10:00:25;21.53;;;8.37;;
64894;SDS011;51588;53.702;10.208;2022-12-24T10:02:52;12.07;;;7.53;;
64894;SDS011;51588;53.702;10.208;2022-12-24T10:05:22;17.57;;;8.60;;
64894;SDS011;51588;53.702;10.208;2022-12-24T10:07:52;14.33;;;8.33;;
64894;SDS011;51588;53.702;10.208;2022-12-24T10:10:24;14.27;;;8.97;;
64894;SDS011;51588;53.702;10.208;2022-12-24T10:12:54;14.10;;;9.70;;
64894;SDS011;51588;53.702;10.208;2022-12-24T10:15:24;13.10;;;10.73;;
64894;SDS011;51588;53.702;10.208;2022-12-24T10:17:55;15.23;;;11.60;;
64894;SDS011;51588;53.702;10.208;2022-12-24T10:20:32;13.57;;;10.57;;
64894;SDS011;51588;53.702;10.208;2022-12-24T10:23:02;16.83;;;12.20;;
64894;SDS011;51588;53.702;10.208;2022-12-24T10:25:33;18.80;;;12.50;;
64894;SDS011;51588;53.702;10.208;2022-12-24T10:28:02;19.20;;;13.57;;
64894;SDS011;51588;53.702;10.208;2022-12-24T10:30:31;20.57;;;14.23;;
64894;SDS011;51588;53.702;10.208;2022-12-24T10:32:58;21.13;;;13.70;;
64894;SDS011;51588;53.702;10.208;2022-12-24T10:35:25;24.47;;;16.20;;
64894;SDS011;51588;53.702;10.208;2022-12-24T10:37:52;29.00;;;15.67;;
64894;SDS011;51588;53.702;10.208;2022-12-24T10:40:24;33.30;;;15.63;;
64894;SDS011;51588;53.702;10.208;2022-12-24T10:42:52;28.30;;;16.07;;
64894;SDS011;51588;53.702;10.208;2022-12-24T10:45:19;25.53;;;15.43;;
64894;SDS011;51588;53.702;10.208;2022-12-24T10:47:47;26.47;;;15.13;;
64894;SDS011;51588;53.702;10.208;2022-12-24T10:50:15;27.07;;;16.30;;
64894;SDS011;51588;53.702;10.208;2022-12-24T10:52:43;30.40;;;16.20;;
64894;SDS011;51588;53.702;10.208;2022-12-24T10:55:19;25.07;;;15.30;;
64894;SDS011;51588;53.702;10.208;2022-12-24T10:57:57;26.67;;;15.17;;
64894;SDS011;51588;53.702;10.208;2022-12-24T11:00:25;25.40;;;15.03;;
64894;SDS011;51588;53.702;10.208;2022-12-24T11:03:04;35.77;;;17.03;;
64894;SDS011;51588;53.702;10.208;2022-12-24T11:05:31;67.27;;;20.50;;
64894;SDS011;51588;53.702;10.208;2022-12-24T11:07:58;55.77;;;21.90;;
64894;SDS011;51588;53.702;10.208;2022-12-24T11:10:25;62.17;;;23.20;;
64894;SDS011;51588;53.702;10.208;2022-12-24T11:12:51;55.83;;;22.50;;
64894;SDS011;51588;53.702;10.208;2022-12-24T11:15:21;50.83;;;20.63;;
64894;SDS011;51588;53.702;10.208;2022-12-24T11:17:51;50.70;;;21.60;;
64894;SDS011;51588;53.702;10.208;2022-12-24T11:20:18;47.77;;;20.17;;
64894;SDS011;51588;53.702;10.208;2022-12-24T11:22:47;54.93;;;20.07;;
64894;SDS011;51588;53.702;10.208;2022-12-24T11:25:17;41.30;;;17.50;;
64894;SDS011;51588;53.702;10.208;2022-12-24T11:27:45;45.40;;;18.83;;
64894;SDS011;51588;53.702;10.208;2022-12-24T11:30:21;36.03;;;18.00;;
64894;SDS011;51588;53.702;10.208;2022-12-24T11:32:48;33.97;;;18.00;;
64894;SDS011;51588;53.702;10.208;2022-12-24T11:35:15;36.67;;;18.30;;
64894;SDS011;51588;53.702;10.208;2022-12-24T11:37:42;40.83;;;18.53;;
64894;SDS011;51588;53.702;10.208;2022-12-24T11:40:17;31.97;;;16.90;;
64894;SDS011;51588;53.702;10.208;2022-12-24T11:42:45;31.37;;;17.50;;
64894;SDS011;51588;53.702;10.208;2022-12-24T11:45:16;37.03;;;17.60;;
64894;SDS011;51588;53.702;10.208;2022-12-24T11:47:44;30.27;;;17.80;;
64894;SDS011;51588;53.702;10.208;2022-12-24T11:50:18;28.60;;;16.70;;
64894;SDS011;51588;53.702;10.208;2022-12-24T11:52:44;36.73;;;16.90;;
64894;SDS011;51588;53.702;10.208;2022-12-24T11:55:14;27.97;;;17.30;;
64894;SDS011;51588;53.702;10.208;2022-12-24T11:57:45;25.33;;;16.43;;
64894;SDS011;51588;53.702;10.208;2022-12-24T12:00:13;29.93;;;16.90;;
64894;SDS011;51588;53.702;10.208;2022-12-24T12:02:40;29.20;;;15.67;;
64894;SDS011;51588;53.702;10.208;2022-12-24T12:05:10;28.27;;;16.03;;
64894;SDS011;51588;53.702;10.208;2022-12-24T12:07:38;24.13;;;15.60;;
64894;SDS011;51588;53.702;10.208;2022-12-24T12:10:05;21.50;;;14.40;;
64894;SDS011;51588;53.702;10.208;2022-12-24T12:12:33;23.37;;;15.00;;
64894;SDS011;51588;53.702;10.208;2022-12-24T12:15:02;25.10;;;15.70;;
64894;SDS011;51588;53.702;10.208;2022-12-24T12:17:31;23.93;;;14.60;;
64894;SDS011;51588;53.702;10.208;2022-12-24T12:19:59;23.83;;;14.47;;
64894;SDS011;51588;53.702;10.208;2022-12-24T12:22:31;20.47;;;13.20;;
64894;SDS011;51588;53.702;10.208;2022-12-24T12:25:00;25.27;;;14.47;;
64894;SDS011;51588;53.702;10.208;2022-12-24T12:27:29;17.80;;;13.90;;
64894;SDS011;51588;53.702;10.208;2022-12-24T12:29:58;20.77;;;14.80;;
64894;SDS011;51588;53.702;10.208;2022-12-24T12:32:26;20.17;;;14.80;;
64894;SDS011;51588;53.702;10.208;2022-12-24T12:34:57;23.77;;;16.53;;
64894;SDS011;51588;53.702;10.208;2022-12-24T12:37:25;19.50;;;15.93;;
64894;SDS011;51588;53.702;10.208;2022-12-24T12:39:55;20.83;;;14.80;;
64894;SDS011;51588;53.702;10.208;2022-12-24T12:42:24;20.37;;;15.50;;
64894;SDS011;51588;53.702;10.208;2022-12-24T12:44:55;22.83;;;14.53;;
64894;SDS011;51588;53.702;10.208;2022-12-24T12:47:30;21.27;;;14.63;;
64894;SDS011;51588;53.702;10.208;2022-12-24T12:49:59;20.70;;;13.80;;
64894;SDS011;51588;53.702;10.208;2022-12-24T12:52:32;16.90;;;13.53;;
64894;SDS011;51588;53.702;10.208;2022-12-24T12:55:05;18.07;;;14.27;;
64894;SDS011;51588;53.702;10.208;2022-12-24T12:57:40;17.77;;;12.83;;
64894;SDS011;51588;53.702;10.208;2022-12-24T13:00:07;19.50;;;14.00;;
64894;SDS011;51588;53.702;10.208;2022-12-24T13:02:39;21.03;;;12.93;;
64894;SDS011;51588;53.702;10.208;2022-12-24T13:05:17;17.43;;;12.67;;
64894;SDS011;51588;53.702;10.208;2022-12-24T13:08:02;18.23;;;12.87;;
64894;SDS011;51588;53.702;10.208;2022-12-24T13:10:41;15.90;;;13.30;;
64894;SDS011;51588;53.702;10.208;2022-12-24T13:15:59;13.87;;;12.13;;
64894;SDS011;51588;53.702;10.208;2022-12-24T13:21:15;23.17;;;12.70;;
64894;SDS011;51588;53.702;10.208;2022-12-24T13:23:42;15.63;;;11.53;;
64894;SDS011;51588;53.702;10.208;2022-12-24T13:26:10;20.47;;;11.87;;
64894;SDS011;51588;53.702;10.208;2022-12-24T13:28:37;17.13;;;11.70;;
64894;SDS011;51588;53.702;10.208;2022-12-24T13:33:49;12.30;;;10.60;;
64894;SDS011;51588;53.702;10.208;2022-12-24T13:36:16;16.50;;;10.33;;
64894;SDS011;51588;53.702;10.208;2022-12-24T13:38:43;11.60;;;10.17;;
64894;SDS011;51588;53.702;10.208;2022-12-24T13:44:02;18.90;;;11.03;;
64894;SDS011;51588;53.702;10.208;2022-12-24T13:46:47;12.70;;;9.93;;
64894;SDS011;51588;53.702;10.208;2022-12-24T13:49:16;18.53;;;11.47;;
64894;SDS011;51588;53.702;10.208;2022-12-24T13:51:43;15.20;;;10.60;;
64894;SDS011;51588;53.702;10.208;2022-12-24T13:54:09;16.47;;;10.83;;
64894;SDS011;51588;53.702;10.208;2022-12-24T13:56:37;18.63;;;11.77;;
64894;SDS011;51588;53.702;10.208;2022-12-24T13:59:13;12.10;;;10.10;;
64894;SDS011;51588;53.702;10.208;2022-12-24T14:01:43;18.00;;;10.43;;
64894;SDS011;51588;53.702;10.208;2022-12-24T14:04:19;17.10;;;10.73;;
64894;SDS011;51588;53.702;10.208;2022-12-24T14:06:48;19.60;;;12.00;;
64894;SDS011;51588;53.702;10.208;2022-12-24T14:09:17;21.73;;;10.87;;
64894;SDS011;51588;53.702;10.208;2022-12-24T14:14:31;27.93;;;13.77;;
64894;SDS011;51588;53.702;10.208;2022-12-24T14:16:58;28.73;;;14.23;;
64894;SDS011;51588;53.702;10.208;2022-12-24T14:19:27;30.83;;;13.93;;
64894;SDS011;51588;53.702;10.208;2022-12-24T14:21:55;30.57;;;14.43;;
64894;SDS011;51588;53.702;10.208;2022-12-24T14:24:24;29.43;;;13.40;;
64894;SDS011;51588;53.702;10.208;2022-12-24T14:26:53;35.97;;;14.60;;
64894;SDS011;51588;53.702;10.208;2022-12-24T14:29:21;35.97;;;15.17;;
64894;SDS011;51588;53.702;10.208;2022-12-24T14:31:51;34.33;;;13.83;;
64894;SDS011;51588;53.702;10.208;2022-12-24T14:34:18;29.27;;;13.90;;
64894;SDS011;51588;53.702;10.208;2022-12-24T14:36:44;30.23;;;14.50;;
64894;SDS011;51588;53.702;10.208;2022-12-24T14:39:18;41.90;;;14.20;;
64894;SDS011;51588;53.702;10.208;2022-12-24T14:41:47;20.87;;;12.87;;
64894;SDS011;51588;53.702;10.208;2022-12-24T14:44:17;27.53;;;14.00;;